LRTR/TSR METAR and TAF weather

Enter ICAO airport designator
Station Type Date Time Source
LRTR METAR 2021/09/16 11:00 UTC NOAA

LRTR 161100Z 17008KT CAVOK 28/11 Q1015


Station Type Date Time Source
LRTR Decoded METAR 2021/09/16 11:00 UTC NOAA

Timisoara, Romania (LRTR) 45-46N 021-15E 88M
Sep 16, 2021 - 07:00 AM EDT / 2021.09.16 1100 UTC
Wind: from the S (170 degrees) at 9 MPH (8 KT):0
Visibility: greater than 7 mile(s):0
Temperature: 82 F (28 C)
Dew Point: 51 F (11 C)
Relative Humidity: 34%
Pressure (altimeter): 29.97 in. Hg (1015 hPa)
ob: LRTR 161100Z 17008KT CAVOK 28/11 Q1015
cycle: 11

Station Type Date Time Source
LRTR TAF 2021/09/16 12:31 UTC NOAA

TAF LRTR 161100Z 1612/1712 19010KT CAVOK PROB30
TEMPO 1618/1621 5000 SHRA SCT040CB
BECMG 1618/1620 VRB04KT PROB40
TEMPO 1708/1712 5000 TSRA SCT040CB

Example: see airport list